Aplington, Iowa
Current Conditions -  °F | °C
As of 1:55 PM on Wednesday 17 Dec 2014 (Local Time) from KIFA Reporting Station
Scattered Clouds Scattered Clouds  
Wind Chill: 16°   Ceiling: Unl
Heat Index: 24°   Visibility: 10mi
Dew Point: 17°   Wind: 7mph
Humidity: 73%   Direction: 330°NNW
Pressure: 30.27"   Gusts: NA
Location:  42.58°N, 92.88°W
Report Text: KIFA 171955Z AUTO 33006KT 10SM SCT015 M04/M09 A3027 RMK AO2 T10451086
Loading
Personal Weather Stations






























Interactive Weather Map New forecast layout! Learn more

10-Day Weather Forecast

Advertisements
Track Severe Weather on mobile